createdAt,value
2016-10-21T00:00:09.330Z,991
2016-10-21T00:00:29.933Z,991
2016-10-21T00:00:50.568Z,991
2016-10-21T00:01:11.182Z,991
2016-10-21T00:01:31.743Z,990.9
2016-10-21T00:01:52.322Z,991
2016-10-21T00:02:12.899Z,990.9
2016-10-21T00:02:33.472Z,990.9
2016-10-21T00:02:54.043Z,990.9
2016-10-21T00:03:14.616Z,990.9
2016-10-21T00:03:35.196Z,990.9
2016-10-21T00:03:55.772Z,990.9
2016-10-21T00:04:16.366Z,991
2016-10-21T00:04:36.934Z,990.9
2016-10-21T00:04:57.503Z,990.9
2016-10-21T00:05:18.076Z,991
2016-10-21T00:05:38.733Z,991
2016-10-21T00:05:59.296Z,990.9
2016-10-21T00:06:20.680Z,991
2016-10-21T00:06:41.255Z,990.9
2016-10-21T00:07:01.828Z,991
2016-10-21T00:07:22.405Z,991
2016-10-21T00:07:42.976Z,991
2016-10-21T00:08:03.564Z,991
2016-10-21T00:08:24.171Z,991
2016-10-21T00:08:44.775Z,991
2016-10-21T00:09:05.358Z,991
2016-10-21T00:09:26.007Z,991
2016-10-21T00:09:46.657Z,991
2016-10-21T00:10:07.230Z,991
2016-10-21T00:10:27.828Z,991
2016-10-21T00:10:48.407Z,991
2016-10-21T00:11:09.028Z,991
2016-10-21T00:11:29.606Z,991
2016-10-21T00:11:50.173Z,991
2016-10-21T00:12:10.777Z,991
2016-10-21T00:12:31.344Z,991
2016-10-21T00:12:51.911Z,991
2016-10-21T00:13:12.513Z,991
2016-10-21T00:13:33.084Z,991
2016-10-21T00:13:53.664Z,991
2016-10-21T00:14:14.240Z,991
2016-10-21T00:14:34.811Z,991
2016-10-21T00:14:55.370Z,991.1
2016-10-21T00:15:15.931Z,991
2016-10-21T00:15:36.544Z,991
2016-10-21T00:15:57.152Z,991
2016-10-21T00:16:17.771Z,991.1
2016-10-21T00:16:38.360Z,991.1
2016-10-21T00:16:58.933Z,991
2016-10-21T00:17:19.497Z,991
2016-10-21T00:17:40.139Z,991.1
2016-10-21T00:18:00.714Z,991
2016-10-21T00:18:21.286Z,991.1
2016-10-21T00:18:41.889Z,991.1
2016-10-21T00:19:02.473Z,991
2016-10-21T00:19:23.073Z,991.1
2016-10-21T00:19:43.652Z,991.1
2016-10-21T00:20:04.225Z,991.1
2016-10-21T00:20:24.813Z,991
2016-10-21T00:20:45.379Z,991
2016-10-21T00:21:05.947Z,991.1
2016-10-21T00:21:26.556Z,991.1
2016-10-21T00:21:47.136Z,991.1
2016-10-21T00:22:07.755Z,991.1
2016-10-21T00:22:28.385Z,991.1
2016-10-21T00:22:48.966Z,991.1
2016-10-21T00:23:09.571Z,991
2016-10-21T00:23:30.143Z,991
2016-10-21T00:23:50.739Z,991.1
2016-10-21T00:24:11.308Z,991
2016-10-21T00:24:31.880Z,991
2016-10-21T00:24:52.499Z,991
2016-10-21T00:25:13.063Z,991
2016-10-21T00:25:33.632Z,991
2016-10-21T00:25:54.196Z,991
2016-10-21T00:26:14.775Z,991
2016-10-21T00:26:35.390Z,991
2016-10-21T00:26:55.999Z,991
2016-10-21T00:27:16.590Z,991
2016-10-21T00:27:37.155Z,991
2016-10-21T00:27:57.739Z,991
2016-10-21T00:28:18.351Z,991
2016-10-21T00:28:38.916Z,991
2016-10-21T00:28:59.487Z,991
2016-10-21T00:29:20.098Z,991
2016-10-21T00:29:40.659Z,991
2016-10-21T00:30:01.245Z,991
2016-10-21T00:30:21.828Z,991
2016-10-21T00:30:42.438Z,991
2016-10-21T00:31:03.014Z,991
2016-10-21T00:31:23.631Z,991
2016-10-21T00:31:44.193Z,991
2016-10-21T00:32:04.766Z,991
2016-10-21T00:32:25.395Z,991
2016-10-21T00:32:45.971Z,991
2016-10-21T00:33:06.547Z,991
2016-10-21T00:33:27.187Z,991
2016-10-21T00:33:47.764Z,991
2016-10-21T00:34:08.350Z,990.9
2016-10-21T00:34:28.928Z,991
2016-10-21T00:34:49.508Z,990.9
2016-10-21T00:35:10.084Z,990.9
2016-10-21T00:35:30.694Z,990.9
2016-10-21T00:35:51.281Z,990.9
2016-10-21T00:36:11.852Z,990.9
2016-10-21T00:36:32.429Z,990.9
2016-10-21T00:36:53.012Z,990.9
2016-10-21T00:37:13.589Z,990.9
2016-10-21T00:37:34.184Z,990.9
2016-10-21T00:37:54.756Z,990.9
2016-10-21T00:38:15.339Z,990.9
2016-10-21T00:38:35.922Z,990.9
2016-10-21T00:38:56.496Z,990.9
2016-10-21T00:39:17.073Z,990.9
2016-10-21T00:39:37.650Z,990.9
2016-10-21T00:39:58.227Z,990.9
2016-10-21T00:40:18.820Z,990.8
2016-10-21T00:40:39.403Z,990.9
2016-10-21T00:40:59.969Z,990.9
2016-10-21T00:41:20.554Z,990.8
2016-10-21T00:41:41.135Z,990.9
2016-10-21T00:42:01.708Z,990.9
2016-10-21T00:42:22.330Z,990.8
2016-10-21T00:42:42.915Z,990.9
2016-10-21T00:43:03.488Z,990.8
2016-10-21T00:43:24.070Z,990.8
2016-10-21T00:43:44.695Z,990.8
2016-10-21T00:44:05.265Z,990.8
2016-10-21T00:44:25.880Z,990.8
2016-10-21T00:44:46.450Z,990.8
2016-10-21T00:45:07.034Z,990.8
2016-10-21T00:45:27.731Z,990.8
2016-10-21T00:45:48.291Z,990.8
2016-10-21T00:46:08.871Z,990.8
2016-10-21T00:46:29.469Z,990.8
2016-10-21T00:46:50.037Z,990.8
2016-10-21T00:47:10.644Z,990.8
2016-10-21T00:47:31.266Z,990.8
2016-10-21T00:47:51.838Z,990.8
2016-10-21T00:48:12.432Z,990.7
2016-10-21T00:48:33.003Z,990.8
2016-10-21T00:48:53.579Z,990.7
2016-10-21T00:49:14.176Z,990.8
2016-10-21T00:49:34.756Z,990.8
2016-10-21T00:49:55.338Z,990.8
2016-10-21T00:50:15.920Z,990.8
2016-10-21T00:50:36.500Z,990.8
2016-10-21T00:50:57.075Z,990.8
2016-10-21T00:51:17.651Z,990.8
2016-10-21T00:51:38.234Z,990.8
2016-10-21T00:51:58.809Z,990.8
2016-10-21T00:52:19.394Z,990.8
2016-10-21T00:52:39.964Z,990.8
2016-10-21T00:53:00.548Z,990.8
2016-10-21T00:53:21.129Z,990.8
2016-10-21T00:53:41.706Z,990.8
2016-10-21T00:54:02.308Z,990.8
2016-10-21T00:54:22.915Z,990.8
2016-10-21T00:54:43.482Z,990.8
2016-10-21T00:55:04.064Z,990.8
2016-10-21T00:55:24.644Z,990.8
2016-10-21T00:55:45.248Z,990.8
2016-10-21T00:56:05.840Z,990.8
2016-10-21T00:56:26.450Z,990.8
2016-10-21T00:56:47.077Z,990.8
2016-10-21T00:57:07.672Z,990.8
2016-10-21T00:57:28.256Z,990.8
2016-10-21T00:57:48.834Z,990.8
2016-10-21T00:58:09.401Z,990.8
2016-10-21T00:58:30.002Z,990.8
2016-10-21T00:58:50.574Z,990.8
2016-10-21T00:59:11.147Z,990.8
2016-10-21T00:59:31.722Z,990.8
2016-10-21T00:59:52.307Z,990.7
2016-10-21T01:00:12.882Z,990.7
2016-10-21T01:00:33.467Z,990.7
2016-10-21T01:00:54.034Z,990.7
2016-10-21T01:01:14.626Z,990.7
2016-10-21T01:01:35.206Z,990.8
2016-10-21T01:01:55.863Z,990.7
2016-10-21T01:02:16.479Z,990.8
2016-10-21T01:02:37.096Z,990.7
2016-10-21T01:02:57.705Z,990.8
2016-10-21T01:03:18.278Z,990.8
2016-10-21T01:03:38.885Z,990.8
2016-10-21T01:03:59.482Z,990.8
2016-10-21T01:04:20.061Z,990.8
2016-10-21T01:04:40.626Z,990.8
2016-10-21T01:05:01.211Z,990.8
2016-10-21T01:05:21.782Z,990.8
2016-10-21T01:05:42.352Z,990.7
2016-10-21T01:06:02.922Z,990.8
2016-10-21T01:06:23.510Z,990.8
2016-10-21T01:06:44.089Z,990.8
2016-10-21T01:07:04.647Z,990.8
2016-10-21T01:07:25.239Z,990.7
2016-10-21T01:07:45.810Z,990.7
2016-10-21T01:08:06.376Z,990.7
2016-10-21T01:08:26.948Z,990.7
2016-10-21T01:08:47.525Z,990.8
2016-10-21T01:09:08.085Z,990.7
2016-10-21T01:09:28.658Z,990.7
2016-10-21T01:09:49.226Z,990.7
2016-10-21T01:10:09.801Z,990.7
2016-10-21T01:10:30.424Z,990.8
2016-10-21T01:10:51.033Z,990.7
2016-10-21T01:11:11.597Z,990.8
2016-10-21T01:11:32.172Z,990.7
2016-10-21T01:11:52.738Z,990.7
2016-10-21T01:12:13.324Z,990.7
2016-10-21T01:12:33.910Z,990.8
2016-10-21T01:12:54.496Z,990.7
2016-10-21T01:13:15.108Z,990.7
2016-10-21T01:13:35.673Z,990.8
2016-10-21T01:13:56.254Z,990.8
2016-10-21T01:14:16.821Z,990.7
2016-10-21T01:14:37.392Z,990.7
2016-10-21T01:14:57.978Z,990.7
2016-10-21T01:15:18.599Z,990.7
2016-10-21T01:15:39.182Z,990.8
2016-10-21T01:15:59.753Z,990.7
2016-10-21T01:16:20.335Z,990.7
2016-10-21T01:16:40.897Z,990.7
2016-10-21T01:17:01.477Z,990.7
2016-10-21T01:17:22.089Z,990.7
2016-10-21T01:17:42.661Z,990.7
2016-10-21T01:18:03.242Z,990.7
2016-10-21T01:18:23.834Z,990.7
2016-10-21T01:18:44.415Z,990.7
2016-10-21T01:19:05.040Z,990.7
2016-10-21T01:19:25.631Z,990.6
2016-10-21T01:19:46.211Z,990.7
2016-10-21T01:20:06.788Z,990.6
2016-10-21T01:20:27.351Z,990.6
2016-10-21T01:20:47.928Z,990.6
2016-10-21T01:21:08.539Z,990.6
2016-10-21T01:21:29.117Z,990.6
2016-10-21T01:21:49.696Z,990.6
2016-10-21T01:22:10.275Z,990.6
2016-10-21T01:22:30.846Z,990.6
2016-10-21T01:22:51.417Z,990.6
2016-10-21T01:23:11.999Z,990.5
2016-10-21T01:23:32.592Z,990.6
2016-10-21T01:23:53.183Z,990.6
2016-10-21T01:24:13.782Z,990.6
2016-10-21T01:24:34.343Z,990.6
2016-10-21T01:24:54.916Z,990.6
2016-10-21T01:25:15.536Z,990.6
2016-10-21T01:25:36.098Z,990.6
2016-10-21T01:25:56.666Z,990.6
2016-10-21T01:26:17.233Z,990.5
2016-10-21T01:26:37.816Z,990.6
2016-10-21T01:26:58.396Z,990.6
2016-10-21T01:27:18.968Z,990.6
2016-10-21T01:27:39.579Z,990.6
2016-10-21T01:28:00.175Z,990.6
2016-10-21T01:28:20.757Z,990.6
2016-10-21T01:28:41.329Z,990.6
2016-10-21T01:29:01.892Z,990.5
2016-10-21T01:29:22.487Z,990.5
2016-10-21T01:29:43.097Z,990.6
2016-10-21T01:30:03.666Z,990.6
2016-10-21T01:30:24.321Z,990.6
2016-10-21T01:30:44.908Z,990.6
2016-10-21T01:31:05.537Z,990.5
2016-10-21T01:31:26.134Z,990.6
2016-10-21T01:31:46.730Z,990.5
2016-10-21T01:32:07.312Z,990.5
2016-10-21T01:32:27.888Z,990.6
2016-10-21T01:32:48.562Z,990.5
2016-10-21T01:33:09.136Z,990.5
2016-10-21T01:33:29.714Z,990.6
2016-10-21T01:33:50.327Z,990.5
2016-10-21T01:34:10.943Z,990.6
2016-10-21T01:34:31.562Z,990.5
2016-10-21T01:34:52.150Z,990.5
2016-10-21T01:35:12.731Z,990.5
2016-10-21T01:35:33.303Z,990.5
2016-10-21T01:35:53.862Z,990.5
2016-10-21T01:36:14.431Z,990.5
2016-10-21T01:36:34.992Z,990.5
2016-10-21T01:36:55.590Z,990.4
2016-10-21T01:37:16.170Z,990.5
2016-10-21T01:37:36.778Z,990.5
2016-10-21T01:37:57.352Z,990.5
2016-10-21T01:38:17.940Z,990.4
2016-10-21T01:38:38.515Z,990.5
2016-10-21T01:38:59.128Z,990.4
2016-10-21T01:39:19.708Z,990.5
2016-10-21T01:39:40.325Z,990.5
2016-10-21T01:40:00.941Z,990.5
2016-10-21T01:40:21.525Z,990.5
2016-10-21T01:40:42.115Z,990.5
2016-10-21T01:41:02.688Z,990.5
2016-10-21T01:41:23.311Z,990.5
2016-10-21T01:41:43.927Z,990.5
2016-10-21T01:42:04.504Z,990.5
2016-10-21T01:42:25.111Z,990.5
2016-10-21T01:42:45.721Z,990.4
2016-10-21T01:43:06.292Z,990.5
2016-10-21T01:43:26.868Z,990.4
2016-10-21T01:43:47.439Z,990.4
2016-10-21T01:44:08.036Z,990.4
2016-10-21T01:44:28.623Z,990.5
2016-10-21T01:44:49.217Z,990.5
2016-10-21T01:45:09.811Z,990.5
2016-10-21T01:45:30.436Z,990.4
2016-10-21T01:45:51.008Z,990.4
2016-10-21T01:46:11.589Z,990.4
2016-10-21T01:46:32.168Z,990.4
2016-10-21T01:46:52.768Z,990.4
2016-10-21T01:47:13.347Z,990.4
2016-10-21T01:47:33.918Z,990.5
2016-10-21T01:47:54.495Z,990.4
2016-10-21T01:48:15.080Z,990.4
2016-10-21T01:48:35.676Z,990.4
2016-10-21T01:48:56.251Z,990.5
2016-10-21T01:49:16.811Z,990.4
2016-10-21T01:49:37.437Z,990.5
2016-10-21T01:49:58.065Z,990.4
2016-10-21T01:50:18.651Z,990.4
2016-10-21T01:50:39.233Z,990.4
2016-10-21T01:50:59.816Z,990.4
2016-10-21T01:51:20.400Z,990.4
2016-10-21T01:51:40.972Z,990.4
2016-10-21T01:52:01.580Z,990.4
2016-10-21T01:52:22.210Z,990.4
2016-10-21T01:52:42.796Z,990.4
2016-10-21T01:53:03.363Z,990.4
2016-10-21T01:53:23.934Z,990.4
2016-10-21T01:53:44.544Z,990.4
2016-10-21T01:54:05.139Z,990.4
2016-10-21T01:54:25.784Z,990.3
2016-10-21T01:54:46.399Z,990.4
2016-10-21T01:55:07.005Z,990.4
2016-10-21T01:55:27.585Z,990.4
2016-10-21T01:55:48.170Z,990.4
2016-10-21T01:56:08.772Z,990.3
2016-10-21T01:56:29.348Z,990.3
2016-10-21T01:56:49.915Z,990.3
2016-10-21T01:57:10.520Z,990.3
2016-10-21T01:57:31.083Z,990.4
2016-10-21T01:57:51.669Z,990.4
2016-10-21T01:58:12.275Z,990.3
2016-10-21T01:58:32.852Z,990.3
2016-10-21T01:58:53.424Z,990.3
2016-10-21T01:59:14.004Z,990.3
2016-10-21T01:59:34.572Z,990.4
2016-10-21T01:59:55.143Z,990.3
2016-10-21T02:00:15.728Z,990.3
2016-10-21T02:00:36.308Z,990.3
2016-10-21T02:00:56.886Z,990.3
2016-10-21T02:01:17.451Z,990.3
2016-10-21T02:01:38.016Z,990.3
2016-10-21T02:01:58.627Z,990.3
2016-10-21T02:02:19.203Z,990.3
2016-10-21T02:02:39.786Z,990.3
2016-10-21T02:03:00.348Z,990.3
2016-10-21T02:03:20.922Z,990.3
2016-10-21T02:03:41.496Z,990.3
2016-10-21T02:04:02.065Z,990.3
2016-10-21T02:04:22.641Z,990.3
2016-10-21T02:04:43.227Z,990.3
2016-10-21T02:05:03.826Z,990.3
2016-10-21T02:05:24.470Z,990.3
2016-10-21T02:05:45.029Z,990.3
2016-10-21T02:06:05.605Z,990.3
2016-10-21T02:06:26.243Z,990.3
2016-10-21T02:06:46.814Z,990.3
2016-10-21T02:07:07.391Z,990.3
2016-10-21T02:07:27.975Z,990.3
2016-10-21T02:07:48.558Z,990.3
2016-10-21T02:08:09.126Z,990.3
2016-10-21T02:08:29.724Z,990.3
2016-10-21T02:08:50.300Z,990.3
2016-10-21T02:09:10.921Z,990.3
2016-10-21T02:09:31.507Z,990.3
2016-10-21T02:09:52.123Z,990.3
2016-10-21T02:10:12.703Z,990.2
2016-10-21T02:10:33.334Z,990.3
2016-10-21T02:10:53.911Z,990.2
2016-10-21T02:11:14.495Z,990.2
2016-10-21T02:11:35.068Z,990.2
2016-10-21T02:11:55.625Z,990.2
2016-10-21T02:12:16.195Z,990.2
2016-10-21T02:12:36.769Z,990.2
2016-10-21T02:12:57.363Z,990.2
2016-10-21T02:13:17.937Z,990.2
2016-10-21T02:13:38.501Z,990.3
2016-10-21T02:13:59.064Z,990.2
2016-10-21T02:14:19.650Z,990.3
2016-10-21T02:14:40.220Z,990.2
2016-10-21T02:15:00.783Z,990.2
2016-10-21T02:15:21.370Z,990.2
2016-10-21T02:15:41.940Z,990.2
2016-10-21T02:16:02.530Z,990.2
2016-10-21T02:16:23.141Z,990.2
2016-10-21T02:16:43.724Z,990.2
2016-10-21T02:17:04.296Z,990.2
2016-10-21T02:17:24.887Z,990.2
2016-10-21T02:17:45.500Z,990.2
2016-10-21T02:18:06.098Z,990.2
2016-10-21T02:18:26.656Z,990.2
2016-10-21T02:18:47.252Z,990.2
2016-10-21T02:19:07.818Z,990.3
2016-10-21T02:19:28.383Z,990.2
2016-10-21T02:19:48.965Z,990.2
2016-10-21T02:20:09.592Z,990.2
2016-10-21T02:20:30.230Z,990.2
2016-10-21T02:20:50.797Z,990.2
2016-10-21T02:21:11.418Z,990.2
2016-10-21T02:21:31.984Z,990.2
2016-10-21T02:21:52.545Z,990.2
2016-10-21T02:22:13.122Z,990.2
2016-10-21T02:22:33.730Z,990.2
2016-10-21T02:22:54.340Z,990.2
2016-10-21T02:23:14.921Z,990.2
2016-10-21T02:23:35.487Z,990.2
2016-10-21T02:23:56.056Z,990.2
2016-10-21T02:24:16.679Z,990.2
2016-10-21T02:24:37.259Z,990.2
2016-10-21T02:24:57.917Z,990.2
2016-10-21T02:25:18.481Z,990.2
2016-10-21T02:25:39.058Z,990.2
2016-10-21T02:25:59.622Z,990.2
2016-10-21T02:26:20.178Z,990.2
2016-10-21T02:26:40.773Z,990.2
2016-10-21T02:27:01.330Z,990.2
2016-10-21T02:27:21.922Z,990.2
2016-10-21T02:27:42.495Z,990.2
2016-10-21T02:28:03.088Z,990.2
2016-10-21T02:28:23.664Z,990.2
2016-10-21T02:28:44.255Z,990.2
2016-10-21T02:29:04.827Z,990.2
2016-10-21T02:29:25.419Z,990.2
2016-10-21T02:29:45.997Z,990.2
2016-10-21T02:30:06.595Z,990.2
2016-10-21T02:30:27.171Z,990.2
2016-10-21T02:30:47.736Z,990.2
2016-10-21T02:31:08.307Z,990.2
2016-10-21T02:31:28.884Z,990.3
2016-10-21T02:31:49.481Z,990.2
2016-10-21T02:32:10.046Z,990.2
2016-10-21T02:32:30.656Z,990.3
2016-10-21T02:32:51.214Z,990.2
2016-10-21T02:33:11.791Z,990.2
2016-10-21T02:33:32.358Z,990.2
2016-10-21T02:33:52.911Z,990.2
2016-10-21T02:34:13.499Z,990.2
2016-10-21T02:34:34.072Z,990.3
2016-10-21T02:34:54.643Z,990.2
2016-10-21T02:35:15.210Z,990.2
2016-10-21T02:35:35.823Z,990.2
2016-10-21T02:35:56.414Z,990.2
2016-10-21T02:36:16.996Z,990.2
2016-10-21T02:36:37.572Z,990.2
2016-10-21T02:36:58.142Z,990.2
2016-10-21T02:37:18.715Z,990.2
2016-10-21T02:37:39.318Z,990.2
2016-10-21T02:37:59.897Z,990.2
2016-10-21T02:38:20.483Z,990.2
2016-10-21T02:38:41.091Z,990.2
2016-10-21T02:39:01.657Z,990.2
2016-10-21T02:39:22.225Z,990.2
2016-10-21T02:39:42.799Z,990.2
2016-10-21T02:40:03.377Z,990.2
2016-10-21T02:40:23.997Z,990.2
2016-10-21T02:40:44.570Z,990.2
2016-10-21T02:41:05.146Z,990.2
2016-10-21T02:41:25.767Z,990.2
2016-10-21T02:41:46.368Z,990.2
2016-10-21T02:42:06.930Z,990.2
2016-10-21T02:42:27.515Z,990.2
2016-10-21T02:42:48.106Z,990.2
2016-10-21T02:43:08.700Z,990.2
2016-10-21T02:43:29.315Z,990.2
2016-10-21T02:43:49.905Z,990.2
2016-10-21T02:44:10.553Z,990.2
2016-10-21T02:44:31.109Z,990.2
2016-10-21T02:44:51.714Z,990.2
2016-10-21T02:45:12.314Z,990.2
2016-10-21T02:45:32.913Z,990.2
2016-10-21T02:45:53.475Z,990.2
2016-10-21T02:46:14.042Z,990.2
2016-10-21T02:46:34.609Z,990.2
2016-10-21T02:46:55.172Z,990.2
2016-10-21T02:47:15.738Z,990.2
2016-10-21T02:47:36.323Z,990.2
2016-10-21T02:47:56.908Z,990.2
2016-10-21T02:48:17.494Z,990.2
2016-10-21T02:48:38.100Z,990.3
2016-10-21T02:48:58.723Z,990.3
2016-10-21T02:49:19.324Z,990.3
2016-10-21T02:49:39.974Z,990.3
2016-10-21T02:50:00.554Z,990.3
2016-10-21T02:50:21.137Z,990.3
2016-10-21T02:50:41.738Z,990.3
2016-10-21T02:51:02.397Z,990.3
2016-10-21T02:51:22.982Z,990.3
2016-10-21T02:51:43.554Z,990.3
2016-10-21T02:52:04.115Z,990.3
2016-10-21T02:52:24.734Z,990.3
2016-10-21T02:52:45.340Z,990.3
2016-10-21T02:53:05.913Z,990.3
2016-10-21T02:53:26.510Z,990.3
2016-10-21T02:53:47.081Z,990.3
2016-10-21T02:54:07.668Z,990.3
2016-10-21T02:54:28.230Z,990.3
2016-10-21T02:54:48.840Z,990.3
2016-10-21T02:55:09.431Z,990.3
2016-10-21T02:55:30.023Z,990.3
2016-10-21T02:55:50.596Z,990.3
2016-10-21T02:56:11.175Z,990.3
2016-10-21T02:56:31.749Z,990.3
2016-10-21T02:56:52.323Z,990.3
2016-10-21T02:57:12.883Z,990.3
2016-10-21T02:57:33.455Z,990.3
2016-10-21T02:57:54.038Z,990.3
2016-10-21T02:58:14.742Z,990.3
2016-10-21T02:58:35.341Z,990.3
2016-10-21T02:58:55.920Z,990.3
2016-10-21T02:59:16.500Z,990.3
2016-10-21T02:59:37.062Z,990.3
2016-10-21T02:59:57.637Z,990.2
2016-10-21T03:00:18.257Z,990.3
2016-10-21T03:00:38.853Z,990.3
2016-10-21T03:00:59.432Z,990.2
2016-10-21T03:01:20.011Z,990.2
2016-10-21T03:01:40.607Z,990.3
2016-10-21T03:02:01.169Z,990.3
2016-10-21T03:02:21.746Z,990.3
2016-10-21T03:02:42.321Z,990.2
2016-10-21T03:03:02.936Z,990.2
2016-10-21T03:03:23.537Z,990.3
2016-10-21T03:03:44.164Z,990.2
2016-10-21T03:04:04.745Z,990.2
2016-10-21T03:04:25.313Z,990.2
2016-10-21T03:04:45.903Z,990.3
2016-10-21T03:05:06.484Z,990.2
2016-10-21T03:05:27.101Z,990.2
2016-10-21T03:05:47.776Z,990.2
2016-10-21T03:06:08.367Z,990.2
2016-10-21T03:06:28.959Z,990.2
2016-10-21T03:06:49.541Z,990.2
2016-10-21T03:07:10.114Z,990.3
2016-10-21T03:07:30.697Z,990.2
2016-10-21T03:07:51.269Z,990.2
2016-10-21T03:08:11.861Z,990.2
2016-10-21T03:08:32.444Z,990.2
2016-10-21T03:08:53.011Z,990.2
2016-10-21T03:09:13.578Z,990.2
2016-10-21T03:09:34.155Z,990.2
2016-10-21T03:09:54.742Z,990.2
2016-10-21T03:10:15.321Z,990.2
2016-10-21T03:10:35.920Z,990.2
2016-10-21T03:10:56.504Z,990.2
2016-10-21T03:11:17.077Z,990.1
2016-10-21T03:11:37.673Z,990.2
2016-10-21T03:11:58.228Z,990.2
2016-10-21T03:12:18.836Z,990.1
2016-10-21T03:12:39.448Z,990.1
2016-10-21T03:13:00.027Z,990.2
2016-10-21T03:13:20.589Z,990.1
2016-10-21T03:13:41.198Z,990.1
2016-10-21T03:14:01.801Z,990.1
2016-10-21T03:14:22.387Z,990.1
2016-10-21T03:14:42.959Z,990.2
2016-10-21T03:15:03.536Z,990.1
2016-10-21T03:15:24.100Z,990.1
2016-10-21T03:15:44.682Z,990.1
2016-10-21T03:16:05.262Z,990.1
2016-10-21T03:16:25.826Z,990.2
2016-10-21T03:16:46.383Z,990.1
2016-10-21T03:17:07.011Z,990.1
2016-10-21T03:17:27.600Z,990.1
2016-10-21T03:17:48.186Z,990.1
2016-10-21T03:18:08.767Z,990.1
2016-10-21T03:18:29.355Z,990.1
2016-10-21T03:18:49.948Z,990.1
2016-10-21T03:19:10.513Z,990.1
2016-10-21T03:19:31.114Z,990.1
2016-10-21T03:19:51.673Z,990.1
2016-10-21T03:20:12.269Z,990.1
2016-10-21T03:20:32.881Z,990.1
2016-10-21T03:20:53.464Z,990.1
2016-10-21T03:21:14.051Z,990.1
2016-10-21T03:21:34.642Z,990.1
2016-10-21T03:21:55.217Z,990.1
2016-10-21T03:22:15.799Z,990.1
2016-10-21T03:22:36.841Z,990.1
2016-10-21T03:22:57.414Z,990.1
2016-10-21T03:23:17.993Z,990.1
2016-10-21T03:23:38.610Z,990.1
2016-10-21T03:23:59.168Z,990.1
2016-10-21T03:24:19.764Z,990.1
2016-10-21T03:24:40.337Z,990.1
2016-10-21T03:25:00.906Z,990.1
2016-10-21T03:25:21.528Z,990.1
2016-10-21T03:25:42.128Z,990.1
2016-10-21T03:26:02.681Z,990.1
2016-10-21T03:26:23.251Z,990.1
2016-10-21T03:26:43.817Z,990.1
2016-10-21T03:27:04.392Z,990.1
2016-10-21T03:27:24.959Z,990.1
2016-10-21T03:27:45.557Z,990.1
2016-10-21T03:28:06.112Z,990.1
2016-10-21T03:28:26.668Z,990.1
2016-10-21T03:28:47.225Z,990.1
2016-10-21T03:29:07.798Z,990.1
2016-10-21T03:29:28.400Z,990.1
2016-10-21T03:29:49.008Z,990.1
2016-10-21T03:30:09.583Z,990.1
2016-10-21T03:30:30.147Z,990.1
2016-10-21T03:30:50.724Z,990.1
2016-10-21T03:31:11.307Z,990.1
2016-10-21T03:31:31.876Z,990.1
2016-10-21T03:31:52.448Z,990.1
2016-10-21T03:32:13.033Z,990.1
2016-10-21T03:32:33.603Z,990.1
2016-10-21T03:32:54.166Z,990.1
2016-10-21T03:33:14.763Z,990.1
2016-10-21T03:33:35.349Z,990.1
2016-10-21T03:33:55.962Z,990.1
2016-10-21T03:34:16.539Z,990.1
2016-10-21T03:34:37.114Z,990.1
2016-10-21T03:34:57.688Z,990.1
2016-10-21T03:35:18.252Z,990.1
2016-10-21T03:35:38.836Z,990.1
2016-10-21T03:35:59.410Z,990.1
2016-10-21T03:36:19.973Z,990.1
2016-10-21T03:36:40.621Z,990.1
2016-10-21T03:37:01.199Z,990.1
2016-10-21T03:37:21.772Z,990.1
2016-10-21T03:37:42.355Z,990.1
2016-10-21T03:38:02.958Z,990.1
2016-10-21T03:38:23.532Z,990.1
2016-10-21T03:38:44.160Z,990.1
2016-10-21T03:39:04.742Z,990.1
2016-10-21T03:39:25.355Z,990.1
2016-10-21T03:39:45.940Z,990
2016-10-21T03:40:06.500Z,990.1
2016-10-21T03:40:27.082Z,990.1
2016-10-21T03:40:47.677Z,990.1
2016-10-21T03:41:08.261Z,990.1
2016-10-21T03:41:28.842Z,990.1
2016-10-21T03:41:49.410Z,990.1
2016-10-21T03:42:10.038Z,990.1
2016-10-21T03:42:30.615Z,990
2016-10-21T03:42:51.193Z,990.1
2016-10-21T03:43:11.764Z,990.1
2016-10-21T03:43:32.372Z,990.1
2016-10-21T03:43:53.036Z,990.1
2016-10-21T03:44:13.625Z,990.1
2016-10-21T03:44:34.192Z,990.1
2016-10-21T03:44:54.757Z,990.1
2016-10-21T03:45:15.328Z,990
2016-10-21T03:45:35.898Z,990
2016-10-21T03:45:56.460Z,990.1
2016-10-21T03:46:17.036Z,990
2016-10-21T03:46:37.642Z,990
2016-10-21T03:46:58.226Z,990
2016-10-21T03:47:18.830Z,990
2016-10-21T03:47:39.453Z,990
2016-10-21T03:48:00.018Z,990
2016-10-21T03:48:20.632Z,990.1
2016-10-21T03:48:41.217Z,990.1
2016-10-21T03:49:01.817Z,990.1
2016-10-21T03:49:22.404Z,990.1
2016-10-21T03:49:42.972Z,990.1
2016-10-21T03:50:03.558Z,990.1
2016-10-21T03:50:24.138Z,990.1
2016-10-21T03:50:44.718Z,990
2016-10-21T03:51:05.299Z,990
2016-10-21T03:51:25.878Z,990.1
2016-10-21T03:51:46.448Z,990.1
2016-10-21T03:52:07.028Z,990.1
2016-10-21T03:52:27.619Z,990.1
2016-10-21T03:52:48.189Z,990.1
2016-10-21T03:53:08.776Z,990.1
2016-10-21T03:53:29.357Z,990.1
2016-10-21T03:53:49.920Z,990.1
2016-10-21T03:54:10.491Z,990.1
2016-10-21T03:54:31.063Z,990.1
2016-10-21T03:54:51.639Z,990.1
2016-10-21T03:55:12.240Z,990.1
2016-10-21T03:55:32.817Z,990.1
2016-10-21T03:55:53.394Z,990.1
2016-10-21T03:56:13.966Z,990.1
2016-10-21T03:56:34.581Z,990.1
2016-10-21T03:56:55.143Z,990.1
2016-10-21T03:57:15.771Z,990.1
2016-10-21T03:57:36.338Z,990.2
2016-10-21T03:57:56.916Z,990.1
2016-10-21T03:58:17.523Z,990.2
2016-10-21T03:58:38.102Z,990.2
2016-10-21T03:58:58.704Z,990.2
2016-10-21T03:59:19.307Z,990.2
2016-10-21T03:59:39.941Z,990.2
2016-10-21T04:00:00.560Z,990.2
2016-10-21T04:00:21.141Z,990.2
2016-10-21T04:00:41.731Z,990.2
2016-10-21T04:01:02.332Z,990.2
2016-10-21T04:01:22.943Z,990.2
2016-10-21T04:01:43.514Z,990.2
2016-10-21T04:02:04.096Z,990.2
2016-10-21T04:02:24.666Z,990.2
2016-10-21T04:02:45.280Z,990.3
2016-10-21T04:03:05.866Z,990.3
2016-10-21T04:03:26.445Z,990.2
2016-10-21T04:03:47.023Z,990.2
2016-10-21T04:04:07.629Z,990.3
2016-10-21T04:04:28.204Z,990.3
2016-10-21T04:04:48.816Z,990.3
2016-10-21T04:05:09.390Z,990.2
2016-10-21T04:05:30.032Z,990.2
2016-10-21T04:05:50.629Z,990.3
2016-10-21T04:06:11.215Z,990.3
2016-10-21T04:06:31.797Z,990.3
2016-10-21T04:06:52.382Z,990.3
2016-10-21T04:07:12.974Z,990.3
2016-10-21T04:07:33.548Z,990.3
2016-10-21T04:07:54.111Z,990.3
2016-10-21T04:08:14.702Z,990.3
2016-10-21T04:08:35.273Z,990.3
2016-10-21T04:08:55.849Z,990.3
2016-10-21T04:09:16.421Z,990.3
2016-10-21T04:09:37.002Z,990.3
2016-10-21T04:09:57.569Z,990.3
2016-10-21T04:10:18.149Z,990.3
2016-10-21T04:10:38.718Z,990.3
2016-10-21T04:10:59.291Z,990.3
2016-10-21T04:11:19.880Z,990.3
2016-10-21T04:11:40.452Z,990.3
2016-10-21T04:12:01.040Z,990.3
2016-10-21T04:12:21.608Z,990.3
2016-10-21T04:12:42.228Z,990.3
2016-10-21T04:13:02.808Z,990.3
2016-10-21T04:13:23.391Z,990.3
2016-10-21T04:13:44.017Z,990.3
2016-10-21T04:14:04.581Z,990.3
2016-10-21T04:14:25.170Z,990.3
2016-10-21T04:14:45.769Z,990.3
2016-10-21T04:15:06.350Z,990.3
2016-10-21T04:15:26.936Z,990.3
2016-10-21T04:15:47.548Z,990.2
2016-10-21T04:16:08.119Z,990.3
2016-10-21T04:16:28.718Z,990.3
2016-10-21T04:16:49.363Z,990.2
2016-10-21T04:17:09.923Z,990.2
2016-10-21T04:17:30.531Z,990.2
2016-10-21T04:17:51.120Z,990.2
2016-10-21T04:18:11.682Z,990.2
2016-10-21T04:18:32.255Z,990.2
2016-10-21T04:18:52.822Z,990.2
2016-10-21T04:19:13.420Z,990.3
2016-10-21T04:19:34.010Z,990.2
2016-10-21T04:19:54.599Z,990.2
2016-10-21T04:20:15.192Z,990.2
2016-10-21T04:20:35.798Z,990.3
2016-10-21T04:20:56.362Z,990.3
2016-10-21T04:21:16.938Z,990.3
2016-10-21T04:21:37.512Z,990.3
2016-10-21T04:21:58.104Z,990.3
2016-10-21T04:22:18.690Z,990.3
2016-10-21T04:22:39.251Z,990.3
2016-10-21T04:22:59.925Z,990.3
2016-10-21T04:23:20.491Z,990.2
2016-10-21T04:23:41.065Z,990.3
2016-10-21T04:24:01.639Z,990.3
2016-10-21T04:24:22.201Z,990.2
2016-10-21T04:24:42.783Z,990.2
2016-10-21T04:25:03.379Z,990.3
2016-10-21T04:25:24.013Z,990.2
2016-10-21T04:25:44.582Z,990.3
2016-10-21T04:26:05.150Z,990.2
2016-10-21T04:26:25.732Z,990.2
2016-10-21T04:26:46.302Z,990.3
2016-10-21T04:27:06.876Z,990.3